createdAt,value
2018-05-03T00:01:17.188Z,1007.3
2018-05-03T00:11:41.775Z,1007.4
2018-05-03T00:21:53.433Z,1007.4
2018-05-03T00:32:28.595Z,1007.3
2018-05-03T00:42:44.269Z,1007.3
2018-05-03T00:52:58.519Z,1007.4
2018-05-03T01:03:13.164Z,1007.6
2018-05-03T01:13:27.694Z,1007.7
2018-05-03T01:24:13.502Z,1007.6
2018-05-03T01:34:59.061Z,1007.8
2018-05-03T01:45:10.115Z,1008.0
2018-05-03T01:55:23.879Z,1008.1
2018-05-03T02:05:38.263Z,1008.2
2018-05-03T02:15:52.553Z,1008.4
2018-05-03T02:26:06.750Z,1008.4
2018-05-03T02:36:20.472Z,1008.5
2018-05-03T02:46:32.804Z,1008.8
2018-05-03T02:57:18.582Z,1009.0
2018-05-03T03:08:04.212Z,1009.2
2018-05-03T03:19:02.072Z,1009.4
2018-05-03T03:29:47.905Z,1009.6
2018-05-03T03:40:00.278Z,1009.8
2018-05-03T03:50:13.365Z,1009.9
2018-05-03T04:00:28.187Z,1010.1
2018-05-03T04:10:42.014Z,1010.1
2018-05-03T04:20:56.837Z,1010.4
2018-05-03T04:31:42.924Z,1010.5
2018-05-03T04:42:16.395Z,1010.5
2018-05-03T04:52:30.838Z,1010.7
2018-05-03T05:02:44.300Z,1010.8
2018-05-03T05:13:09.099Z,1011.0
2018-05-03T05:23:23.948Z,1011.2
2018-05-03T05:33:45.460Z,1011.5
2018-05-03T05:44:00.737Z,1011.7
2018-05-03T05:54:15.000Z,1011.7
2018-05-03T06:05:20.262Z,1012.0
2018-05-03T06:15:33.939Z,1012.1
2018-05-03T06:26:20.034Z,1012.3
2018-05-03T06:36:33.912Z,1012.5
2018-05-03T06:46:48.557Z,1012.4
2018-05-03T06:57:02.907Z,1012.5
2018-05-03T07:07:47.907Z,1012.6
2018-05-03T07:18:02.599Z,1012.7
2018-05-03T07:29:18.617Z,1012.7
2018-05-03T07:39:30.232Z,1012.8
2018-05-03T07:49:42.555Z,1012.9
2018-05-03T08:00:33.939Z,1013.3
2018-05-03T08:11:31.996Z,1013.2
2018-05-03T08:22:20.438Z,1013.3
2018-05-03T08:33:27.823Z,1013.2
2018-05-03T08:43:42.304Z,1013.1
2018-05-03T08:54:23.160Z,1013.0
2018-05-03T09:04:40.257Z,1013.1
2018-05-03T09:15:15.877Z,1013.1
2018-05-03T09:25:40.726Z,1012.9
2018-05-03T09:36:23.275Z,1013.4
2018-05-03T09:47:08.036Z,1013.5
2018-05-03T09:58:04.781Z,1013.4
2018-05-03T10:08:19.230Z,1013.2
2018-05-03T10:19:04.914Z,1013.4
2018-05-03T10:29:53.190Z,1013.5
2018-05-03T10:40:04.929Z,1013.5
2018-05-03T10:50:17.192Z,1013.7
2018-05-03T11:00:31.826Z,1013.6
2018-05-03T11:10:45.331Z,1013.3
2018-05-03T11:20:59.882Z,1013.5
2018-05-03T11:32:04.265Z,1013.3
2018-05-03T11:43:07.504Z,1013.7
2018-05-03T11:53:21.955Z,1013.6
2018-05-03T12:03:36.752Z,1013.7
2018-05-03T12:14:00.495Z,1014.0
2018-05-03T12:24:47.189Z,1013.9
2018-05-03T12:35:17.732Z,1013.7
2018-05-03T12:45:32.195Z,1013.9
2018-05-03T12:57:09.591Z,1013.4
2018-05-03T13:07:43.702Z,1014.4
2018-05-03T13:18:53.669Z,1014.2
2018-05-03T13:29:29.313Z,1013.9
2018-05-03T13:40:19.960Z,1014.2
2018-05-03T13:50:45.604Z,1013.5
2018-05-03T14:00:59.627Z,1013.8
2018-05-03T14:11:14.221Z,1013.9
2018-05-03T14:21:28.165Z,1013.9
2018-05-03T14:32:13.475Z,1014.7
2018-05-03T14:42:59.314Z,1014.5
2018-05-03T14:53:46.272Z,1014.2
2018-05-03T15:04:31.975Z,1014.1
2018-05-03T15:15:17.835Z,1014.1
2018-05-03T15:26:05.513Z,1014.1
2018-05-03T15:36:52.126Z,1014.2
2018-05-03T15:47:04.436Z,1014.2
2018-05-03T15:57:23.172Z,1014.3
2018-05-03T16:07:50.011Z,1014.4
2018-05-03T16:18:04.926Z,1014.3
2018-05-03T16:28:19.406Z,1014.5
2018-05-03T16:38:31.711Z,1014.5
2018-05-03T16:48:46.180Z,1014.6
2018-05-03T16:58:58.140Z,1014.7
2018-05-03T17:09:12.153Z,1014.8
2018-05-03T17:19:26.812Z,1015.0
2018-05-03T17:29:41.119Z,1015.0
2018-05-03T17:39:55.009Z,1015.2
2018-05-03T17:50:09.420Z,1015.4
2018-05-03T18:03:48.972Z,1015.6
2018-05-03T18:16:16.089Z,1015.7
2018-05-03T18:30:19.721Z,1016.0
2018-05-03T18:43:04.495Z,1016.2
2018-05-03T18:55:55.628Z,1016.5
2018-05-03T19:20:21.207Z,1016.8
2018-05-03T19:31:42.432Z,1016.9
2018-05-03T19:42:52.368Z,1017.2
2018-05-03T19:53:58.179Z,1017.4
2018-05-03T20:05:18.571Z,1017.5
2018-05-03T20:16:42.165Z,1017.6
2018-05-03T20:26:57.747Z,1017.7
2018-05-03T20:37:12.088Z,1017.6
2018-05-03T20:47:27.718Z,1017.7
2018-05-03T20:57:41.755Z,1017.6
2018-05-03T21:08:30.458Z,1017.8
2018-05-03T21:18:44.343Z,1017.9
2018-05-03T21:28:55.764Z,1017.9
2018-05-03T21:39:09.859Z,1018.0
2018-05-03T21:49:27.795Z,1018.0
2018-05-03T21:59:41.469Z,1018.0
2018-05-03T22:09:55.566Z,1018.0
2018-05-03T22:20:10.120Z,1018.0
2018-05-03T22:30:24.028Z,1018.0
2018-05-03T22:40:38.237Z,1018.1
2018-05-03T22:51:23.925Z,1018.2
2018-05-03T23:01:38.636Z,1018.2
2018-05-03T23:11:52.735Z,1018.3
2018-05-03T23:22:05.074Z,1018.3
2018-05-03T23:32:50.413Z,1018.4
2018-05-03T23:43:04.921Z,1018.3
2018-05-03T23:53:18.977Z,1018.3
